Time;durP1;ratioP1;P1;durP2;ratioP2;P2;SDS_P1;SDS_P2;PMS_P1;PMS_P2;Temp;Humidity;BMP_temperature;BMP_pressure;BME280_temperature;BME280_humidity;BME280_pressure;Samples;Min_cycle;Max_cycle;Signal;HPM_P1;HPM_P2
2021/08/07 00:01:42;;;;;;;6.83;4.20;;;18.10;99.90;;;;;;4918448;29;20523;-89
2021/08/07 00:04:10;;;;;;;5.17;4.50;;;18.10;99.90;;;;;;4939337;29;20477;-89
2021/08/07 00:06:37;;;;;;;5.40;4.27;;;18.10;99.90;;;;;;4953136;29;20456;-89
2021/08/07 00:09:03;;;;;;;6.73;5.07;;;18.10;99.90;;;;;;4921503;29;20471;-89
2021/08/07 00:11:30;;;;;;;7.43;4.43;;;18.00;99.90;;;;;;4918357;29;20462;-88
2021/08/07 00:13:57;;;;;;;5.37;4.80;;;18.00;99.90;;;;;;4922796;29;20505;-89
2021/08/07 00:16:23;;;;;;;7.47;5.07;;;18.00;99.90;;;;;;4925205;29;20478;-88
2021/08/07 00:18:50;;;;;;;7.10;4.90;;;18.00;99.90;;;;;;4924689;29;20467;-89
2021/08/07 00:21:18;;;;;;;4.37;3.97;;;18.00;99.90;;;;;;4925971;29;20451;-89
2021/08/07 00:23:45;;;;;;;5.20;4.70;;;17.90;99.90;;;;;;4923738;29;20962;-89
2021/08/07 00:26:12;;;;;;;7.27;4.53;;;17.80;99.90;;;;;;4929075;29;20450;-89
2021/08/07 00:28:38;;;;;;;5.47;4.57;;;17.90;99.90;;;;;;4922398;29;20476;-89
2021/08/07 00:31:05;;;;;;;6.30;4.20;;;17.90;99.90;;;;;;4919545;29;20454;-89
2021/08/07 00:33:32;;;;;;;5.47;4.20;;;17.90;99.90;;;;;;4932102;29;20450;-89
2021/08/07 00:35:58;;;;;;;10.50;4.50;;;17.90;99.90;;;;;;4938524;29;20465;-89
2021/08/07 00:38:26;;;;;;;5.03;4.53;;;17.80;99.90;;;;;;4940135;29;20455;-89
2021/08/07 00:40:53;;;;;;;5.77;5.17;;;17.90;99.90;;;;;;4940803;29;20441;-89
2021/08/07 00:43:20;;;;;;;5.97;4.87;;;17.90;99.90;;;;;;4933086;29;20485;-89
2021/08/07 00:45:47;;;;;;;8.63;4.77;;;17.90;99.90;;;;;;4922139;29;20453;-89
2021/08/07 00:48:14;;;;;;;5.43;4.77;;;17.90;99.90;;;;;;4917501;29;20439;-89
2021/08/07 00:50:44;;;;;;;5.90;4.23;;;17.90;99.90;;;;;;4920284;29;20455;-89
2021/08/07 00:53:12;;;;;;;7.87;6.93;;;17.90;99.90;;;;;;4930257;29;20442;-89
2021/08/07 00:55:41;;;;;;;4.97;4.37;;;17.90;99.90;;;;;;4940065;29;20454;-89
2021/08/07 00:58:08;;;;;;;6.07;4.10;;;17.90;99.90;;;;;;4940775;29;20508;-89
2021/08/07 01:00:35;;;;;;;5.20;4.70;;;17.80;99.90;;;;;;4940053;29;20940;-89
2021/08/07 01:03:10;;;;;;;7.53;4.80;;;17.80;99.90;;;;;;4936385;29;20454;-89
2021/08/07 01:05:43;;;;;;;7.90;5.70;;;17.80;99.90;;;;;;4938390;29;20464;-89
2021/08/07 01:08:16;;;;;;;8.73;4.57;;;17.70;99.90;;;;;;4943013;29;20435;-89
2021/08/07 01:10:52;;;;;;;5.50;4.77;;;17.70;99.90;;;;;;4939181;29;20455;-89
2021/08/07 01:13:24;;;;;;;4.80;3.93;;;17.60;99.90;;;;;;4939469;29;20441;-89
2021/08/07 01:15:56;;;;;;;5.00;4.00;;;17.50;99.90;;;;;;4937986;29;20468;-89
2021/08/07 01:18:26;;;;;;;5.40;4.90;;;17.60;99.90;;;;;;4936522;29;20943;-89
2021/08/07 01:20:55;;;;;;;7.60;3.93;;;17.70;99.90;;;;;;4928120;29;20466;-89
2021/08/07 01:23:36;;;;;;;4.80;4.40;;;17.70;99.90;;;;;;4934479;29;20496;-89
2021/08/07 01:26:15;;;;;;;6.33;5.50;;;17.60;99.90;;;;;;4935632;29;20554;-89
2021/08/07 01:28:45;;;;;;;6.47;5.40;;;17.70;99.90;;;;;;4928535;29;20466;-87
2021/08/07 01:31:14;;;;;;;6.60;4.80;;;17.70;99.90;;;;;;4951184;29;21035;-89
2021/08/07 01:33:42;;;;;;;7.73;4.70;;;17.60;99.90;;;;;;4938331;29;20869;-89
2021/08/07 01:36:09;;;;;;;9.57;4.93;;;17.60;99.90;;;;;;4937610;29;20458;-89
2021/08/07 01:38:37;;;;;;;7.63;4.70;;;17.60;99.90;;;;;;4937699;29;20477;-89
2021/08/07 01:41:21;;;;;;;7.67;4.77;;;17.60;99.90;;;;;;4957682;29;20511;-88
2021/08/07 01:43:49;;;;;;;5.80;5.20;;;17.50;99.90;;;;;;4955349;29;21032;-89
2021/08/07 01:46:18;;;;;;;5.50;4.03;;;17.50;99.90;;;;;;4951986;29;20445;-87
2021/08/07 01:48:52;;;;;;;7.93;5.60;;;17.50;99.90;;;;;;4953657;29;20496;-89
2021/08/07 01:51:23;;;;;;;8.40;4.67;;;17.60;99.90;;;;;;4948199;29;20453;-90
2021/08/07 01:53:51;;;;;;;7.13;5.43;;;17.60;99.90;;;;;;4946682;29;20430;-89
2021/08/07 01:56:26;;;;;;;7.40;5.30;;;17.60;99.90;;;;;;4956183;29;20445;-89
2021/08/07 01:58:59;;;;;;;10.10;5.40;;;17.60;99.90;;;;;;4922069;29;20482;-89
2021/08/07 02:01:27;;;;;;;9.53;4.93;;;17.60;99.90;;;;;;4921708;29;20442;-89
2021/08/07 02:03:55;;;;;;;6.27;5.67;;;17.60;99.90;;;;;;4920549;29;20483;-89
2021/08/07 02:06:23;;;;;;;5.60;4.67;;;17.60;99.90;;;;;;4918708;29;20509;-89
2021/08/07 02:08:51;;;;;;;4.73;4.33;;;17.60;99.90;;;;;;4918221;29;20470;-87
2021/08/07 02:11:19;;;;;;;8.07;4.40;;;17.70;99.90;;;;;;4917987;29;20454;-89
2021/08/07 02:13:45;;;;;;;4.63;3.97;;;17.70;99.90;;;;;;4917380;29;20457;-89
2021/08/07 02:16:15;;;;;;;4.33;3.90;;;17.70;99.90;;;;;;4923973;29;20457;-89
2021/08/07 02:18:43;;;;;;;7.77;4.10;;;17.70;99.90;;;;;;4942878;29;20465;-89
2021/08/07 02:21:12;;;;;;;8.13;4.10;;;17.70;99.90;;;;;;4935913;29;20451;-89
2021/08/07 02:23:39;;;;;;;4.73;4.17;;;17.70;99.90;;;;;;4935727;29;20482;-89
2021/08/07 02:26:08;;;;;;;5.90;4.37;;;17.70;99.90;;;;;;4930887;29;20465;-89
2021/08/07 02:28:35;;;;;;;6.17;4.00;;;17.70;99.90;;;;;;4916572;29;20485;-89
2021/08/07 02:31:03;;;;;;;7.47;4.10;;;17.80;99.90;;;;;;4916750;29;20466;-89
2021/08/07 02:33:31;;;;;;;8.33;3.50;;;17.90;99.90;;;;;;4916932;29;20494;-89
2021/08/07 02:36:00;;;;;;;5.47;3.80;;;17.90;99.90;;;;;;4922737;29;20462;-90
2021/08/07 02:38:27;;;;;;;3.57;3.27;;;17.70;99.90;;;;;;4938536;29;20457;-89
2021/08/07 02:40:56;;;;;;;4.37;3.97;;;17.90;99.90;;;;;;4940572;29;20465;-89
2021/08/07 02:43:25;;;;;;;4.63;3.77;;;17.90;99.90;;;;;;4939164;29;20458;-88
2021/08/07 02:45:52;;;;;;;6.47;4.90;;;17.80;99.90;;;;;;4938081;29;20465;-89
2021/08/07 02:48:20;;;;;;;3.80;3.40;;;17.80;99.90;;;;;;4922032;29;20831;-89
2021/08/07 02:50:48;;;;;;;5.53;4.17;;;17.80;99.90;;;;;;4921005;29;20856;-89
2021/08/07 02:53:17;;;;;;;5.97;4.10;;;17.80;99.90;;;;;;4922192;29;20447;-89
2021/08/07 02:55:45;;;;;;;4.97;3.60;;;17.70;99.90;;;;;;4923249;29;20457;-89
2021/08/07 02:58:11;;;;;;;4.70;4.27;;;17.80;99.90;;;;;;4942230;29;20453;-89
2021/08/07 03:00:39;;;;;;;5.50;4.63;;;17.80;99.90;;;;;;4941895;29;20483;-89
2021/08/07 03:03:06;;;;;;;5.97;3.93;;;17.80;99.90;;;;;;4940807;29;20857;-89
2021/08/07 03:05:33;;;;;;;5.47;4.97;;;17.80;99.90;;;;;;4940853;29;20485;-89
2021/08/07 03:08:01;;;;;;;7.67;4.60;;;17.70;99.90;;;;;;4924881;29;20458;-89
2021/08/07 03:10:28;;;;;;;6.20;5.13;;;17.70;99.90;;;;;;4931575;29;20474;-89
2021/08/07 03:12:57;;;;;;;5.70;4.17;;;17.70;99.90;;;;;;4926053;29;20816;-89
2021/08/07 03:15:25;;;;;;;8.50;4.87;;;17.60;99.90;;;;;;4922847;29;20452;-89
2021/08/07 03:17:52;;;;;;;5.67;4.83;;;17.50;99.90;;;;;;4923805;29;20467;-89
2021/08/07 03:20:19;;;;;;;6.27;4.33;;;17.40;99.90;;;;;;4921725;29;20486;-89
2021/08/07 03:22:46;;;;;;;8.73;4.27;;;17.40;99.90;;;;;;4938055;29;20461;-89
2021/08/07 03:25:14;;;;;;;5.53;5.03;;;17.30;99.90;;;;;;4927669;29;20482;-89
2021/08/07 03:27:41;;;;;;;7.20;4.33;;;17.30;99.90;;;;;;4928369;29;20455;-89
2021/08/07 03:30:09;;;;;;;5.67;4.10;;;17.20;99.90;;;;;;4920976;29;20467;-89
2021/08/07 03:32:35;;;;;;;5.83;4.00;;;17.20;99.90;;;;;;4920087;29;20488;-87
2021/08/07 03:35:02;;;;;;;6.07;3.63;;;17.20;99.90;;;;;;4919714;29;20937;-89
2021/08/07 03:37:29;;;;;;;5.70;4.60;;;17.20;99.90;;;;;;4919501;29;20462;-89
2021/08/07 03:39:56;;;;;;;4.20;3.70;;;17.10;99.90;;;;;;4918921;29;20496;-89
2021/08/07 03:42:24;;;;;;;6.07;3.20;;;17.10;99.90;;;;;;4935749;29;20836;-88
2021/08/07 03:44:50;;;;;;;4.97;4.13;;;17.00;99.90;;;;;;4938405;29;20491;-89
2021/08/07 03:47:17;;;;;;;4.33;3.80;;;17.10;99.90;;;;;;4937391;29;20453;-88
2021/08/07 03:49:44;;;;;;;7.03;4.23;;;17.10;99.90;;;;;;4938620;29;20474;-89
2021/08/07 03:52:10;;;;;;;4.00;3.70;;;17.10;99.90;;;;;;4957847;29;20437;-90
2021/08/07 03:54:37;;;;;;;6.63;3.70;;;17.00;99.90;;;;;;4948726;29;20884;-87
2021/08/07 03:57:04;;;;;;;5.10;4.17;;;17.00;99.90;;;;;;4940049;29;20464;-88
2021/08/07 03:59:32;;;;;;;5.00;4.50;;;17.00;99.90;;;;;;4941359;29;20469;-88
2021/08/07 04:01:59;;;;;;;4.67;3.70;;;17.00;99.90;;;;;;4943853;29;20445;-87
2021/08/07 04:04:25;;;;;;;7.73;3.50;;;16.90;99.90;;;;;;4943742;29;20465;-88
2021/08/07 04:06:53;;;;;;;5.80;3.70;;;16.80;99.90;;;;;;4959497;29;20445;-88
2021/08/07 04:09:19;;;;;;;3.33;3.13;;;16.80;99.90;;;;;;4961323;29;20498;-88
2021/08/07 04:11:46;;;;;;;5.20;3.60;;;16.80;99.90;;;;;;4960221;29;20509;-88
2021/08/07 04:14:13;;;;;;;4.80;4.00;;;16.80;99.90;;;;;;4960810;29;20450;-88
2021/08/07 04:16:41;;;;;;;8.00;4.00;;;16.80;99.90;;;;;;4960147;29;20484;-88
2021/08/07 04:19:07;;;;;;;7.10;4.73;;;16.80;99.90;;;;;;4952318;29;20480;-89
2021/08/07 04:21:34;;;;;;;5.20;4.70;;;16.90;99.90;;;;;;4942143;29;20457;-88
2021/08/07 04:24:00;;;;;;;7.63;4.47;;;16.90;99.90;;;;;;4940099;29;20457;-88
2021/08/07 04:26:27;;;;;;;5.10;4.33;;;16.90;99.90;;;;;;4939357;29;20463;-89
2021/08/07 04:28:54;;;;;;;4.00;3.63;;;17.00;99.90;;;;;;4935551;29;20850;-89
2021/08/07 04:31:21;;;;;;;7.03;3.90;;;17.10;99.90;;;;;;4920192;29;20460;-89
2021/08/07 04:33:49;;;;;;;4.17;3.77;;;17.10;99.90;;;;;;4920173;29;20454;-89
2021/08/07 04:36:15;;;;;;;3.70;3.40;;;17.10;99.90;;;;;;4919583;29;20460;-89
2021/08/07 04:38:42;;;;;;;6.80;4.80;;;17.20;99.90;;;;;;4918889;29;20486;-89
2021/08/07 04:41:09;;;;;;;8.07;4.17;;;17.30;99.90;;;;;;4964448;23;20509;-90
2021/08/07 04:43:36;;;;;;;3.73;3.33;;;17.30;99.90;;;;;;4956060;28;20457;-89
2021/08/07 04:46:02;;;;;;;5.27;4.30;;;17.40;99.90;;;;;;4956283;28;20476;-90
2021/08/07 04:48:29;;;;;;;6.70;4.20;;;17.40;99.90;;;;;;4955261;28;20485;-91
2021/08/07 04:51:00;;;;;;;4.77;3.67;;;17.40;99.90;;;;;;4969620;28;20560;-92
2021/08/07 04:53:30;;;;;;;7.60;4.47;;;17.30;99.90;;;;;;4982423;28;20959;-91
2021/08/07 04:55:57;;;;;;;7.23;3.60;;;17.20;99.90;;;;;;4973161;28;20472;-90
2021/08/07 04:58:24;;;;;;;4.87;3.43;;;17.30;99.90;;;;;;4960773;28;20453;-92
2021/08/07 05:00:58;;;;;;;6.07;3.50;;;17.40;99.90;;;;;;4975974;28;20479;-91
2021/08/07 05:03:31;;;;;;;3.90;3.30;;;17.50;99.90;;;;;;4976011;28;20450;-92
2021/08/07 05:06:14;;;;;;;8.40;4.10;;;17.50;99.90;;;;;;4976840;28;20864;-91
2021/08/07 05:08:44;;;;;;;4.70;3.60;;;17.60;99.90;;;;;;4974788;28;20464;-91
2021/08/07 05:11:11;;;;;;;5.30;3.47;;;17.80;99.90;;;;;;4955808;28;20979;-91
2021/08/07 05:13:47;;;;;;;4.30;3.07;;;17.80;99.90;;;;;;4961869;28;20460;-91
2021/08/07 05:16:16;;;;;;;4.43;3.67;;;17.90;99.90;;;;;;4962409;28;20505;-89
2021/08/07 05:18:49;;;;;;;5.80;2.77;;;18.00;99.90;;;;;;4959371;28;20459;-91
2021/08/07 05:21:22;;;;;;;3.60;3.13;;;18.10;99.90;;;;;;4974872;28;21014;-89
2021/08/07 05:23:51;;;;;;;6.90;3.20;;;18.10;99.90;;;;;;4976189;28;20440;-91
2021/08/07 05:26:18;;;;;;;4.87;3.13;;;18.20;99.90;;;;;;4979566;28;20507;-90
2021/08/07 05:28:45;;;;;;;3.30;3.00;;;18.20;99.90;;;;;;4975850;28;20465;-90
2021/08/07 05:31:12;;;;;;;5.73;3.67;;;18.20;99.90;;;;;;4958772;29;20465;-90
2021/08/07 05:33:39;;;;;;;3.73;3.23;;;18.30;99.90;;;;;;4968255;28;20454;-91
2021/08/07 05:36:05;;;;;;;4.60;3.77;;;18.30;99.90;;;;;;4959194;28;20810;-91
2021/08/07 05:38:34;;;;;;;3.90;3.37;;;18.40;99.90;;;;;;4982658;28;20452;-91
2021/08/07 05:41:00;;;;;;;7.13;3.60;;;18.50;99.90;;;;;;4989933;28;20493;-89
2021/08/07 05:43:27;;;;;;;6.47;3.40;;;18.30;99.90;;;;;;4989271;28;20804;-90
2021/08/07 05:45:54;;;;;;;5.07;3.27;;;18.30;99.90;;;;;;4983539;28;20495;-91
2021/08/07 05:48:21;;;;;;;5.53;3.70;;;18.30;99.90;;;;;;4963636;28;20459;-91
2021/08/07 05:50:48;;;;;;;3.93;3.33;;;18.40;99.90;;;;;;4966673;28;20477;-91
2021/08/07 05:53:14;;;;;;;4.93;3.23;;;18.80;99.90;;;;;;4956974;28;20979;-91
2021/08/07 05:55:42;;;;;;;4.93;3.47;;;19.60;99.90;;;;;;4957764;28;20456;-90
2021/08/07 05:58:09;;;;;;;5.80;3.43;;;20.50;99.90;;;;;;4958599;28;20451;-91
2021/08/07 06:00:36;;;;;;;6.70;4.47;;;21.00;99.90;;;;;;4971353;28;20471;-91
2021/08/07 06:03:03;;;;;;;3.20;2.90;;;21.00;99.90;;;;;;4974019;28;20459;-90
2021/08/07 06:05:30;;;;;;;4.00;3.27;;;21.10;99.90;;;;;;4975058;28;21026;-91
2021/08/07 06:07:56;;;;;;;8.63;3.03;;;20.90;99.90;;;;;;4975712;28;20444;-91
2021/08/07 06:10:23;;;;;;;5.93;4.00;;;20.70;99.90;;;;;;4993585;28;20464;-91
2021/08/07 06:12:51;;;;;;;7.00;3.67;;;20.50;99.90;;;;;;4973252;28;20452;-90
2021/08/07 06:15:18;;;;;;;9.77;4.30;;;20.30;99.90;;;;;;4960002;28;20444;-91
2021/08/07 06:17:45;;;;;;;4.47;3.17;;;20.20;99.90;;;;;;4959505;29;20479;-91
2021/08/07 06:20:13;;;;;;;5.80;3.73;;;20.10;99.90;;;;;;4960843;28;20501;-90
2021/08/07 06:22:40;;;;;;;4.13;3.30;;;20.20;99.90;;;;;;4977635;28;20448;-91
2021/08/07 06:25:08;;;;;;;4.23;3.37;;;20.30;99.90;;;;;;4977502;28;20547;-91
2021/08/07 06:27:35;;;;;;;3.80;3.50;;;20.30;99.90;;;;;;4977863;28;20978;-91
2021/08/07 06:30:03;;;;;;;7.47;3.87;;;20.40;99.90;;;;;;4975926;28;20466;-91
2021/08/07 06:32:30;;;;;;;2.93;2.70;;;20.50;99.90;;;;;;4958453;28;20446;-91
2021/08/07 06:34:56;;;;;;;4.03;2.67;;;20.90;99.90;;;;;;4958607;28;20480;-91
2021/08/07 06:37:23;;;;;;;4.53;2.83;;;22.00;99.90;;;;;;4958359;28;20453;-91
2021/08/07 06:39:50;;;;;;;3.17;2.20;;;22.80;99.90;;;;;;4958058;28;20964;-91
2021/08/07 06:42:19;;;;;;;4.90;2.37;;;24.10;98.10;;;;;;4976959;28;20451;-91
2021/08/07 06:44:46;;;;;;;3.93;2.30;;;25.10;95.20;;;;;;4977793;28;20467;-91
2021/08/07 06:47:14;;;;;;;4.20;2.13;;;25.80;93.30;;;;;;4979318;28;20447;-91
2021/08/07 06:49:41;;;;;;;2.80;1.93;;;26.20;91.20;;;;;;4992423;28;20483;-90
2021/08/07 06:52:10;;;;;;;3.20;2.30;;;25.30;91.00;;;;;;4959722;28;20457;-91
2021/08/07 06:54:51;;;;;;;3.80;2.43;;;24.90;91.80;;;;;;4958444;28;20457;-91
2021/08/07 06:57:19;;;;;;;3.90;2.20;;;25.10;91.50;;;;;;4958427;28;20543;-86
2021/08/07 06:59:46;;;;;;;2.63;1.87;;;25.00;91.50;;;;;;4957176;29;20484;-86
2021/08/07 07:02:14;;;;;;;4.23;2.00;;;25.40;91.00;;;;;;4975655;28;20459;-86
2021/08/07 07:04:41;;;;;;;4.67;3.10;;;26.20;90.20;;;;;;4976406;28;20500;-86
2021/08/07 07:07:07;;;;;;;3.07;2.27;;;26.70;88.00;;;;;;4981453;28;20455;-86
2021/08/07 07:09:34;;;;;;;2.97;1.73;;;26.80;85.60;;;;;;4988853;28;20470;-87
2021/08/07 07:12:01;;;;;;;3.83;1.97;;;26.90;85.50;;;;;;4968654;28;20457;-87
2021/08/07 07:14:27;;;;;;;3.47;2.37;;;27.30;84.80;;;;;;4957662;28;20974;-86
2021/08/07 07:16:55;;;;;;;4.57;2.60;;;27.30;82.80;;;;;;4960953;28;20447;-86
2021/08/07 07:19:25;;;;;;;3.30;2.20;;;27.80;81.60;;;;;;4965206;28;20506;-86
2021/08/07 07:21:51;;;;;;;3.93;2.40;;;28.50;79.60;;;;;;4978888;28;20839;-86
2021/08/07 07:24:18;;;;;;;4.53;2.27;;;28.00;78.50;;;;;;4977013;28;20448;-86
2021/08/07 07:26:45;;;;;;;3.13;2.10;;;27.40;80.10;;;;;;4976660;28;20493;-87
2021/08/07 07:29:11;;;;;;;4.97;2.80;;;26.60;83.20;;;;;;4988553;28;20448;-86
2021/08/07 07:31:38;;;;;;;3.40;2.43;;;26.10;85.70;;;;;;4967216;28;20453;-85
2021/08/07 07:34:05;;;;;;;5.70;2.50;;;25.50;87.40;;;;;;4966348;29;20445;-86
2021/08/07 07:36:33;;;;;;;5.67;3.30;;;24.80;89.30;;;;;;4957206;28;20820;-86
2021/08/07 07:38:59;;;;;;;2.90;2.17;;;24.40;90.80;;;;;;4964554;28;20448;-86
2021/08/07 07:41:26;;;;;;;5.73;2.70;;;23.90;91.50;;;;;;4976476;28;20484;-86
2021/08/07 07:43:53;;;;;;;4.87;2.47;;;23.80;92.10;;;;;;4975393;28;20457;-87
2021/08/07 07:46:19;;;;;;;5.77;2.93;;;23.70;92.30;;;;;;4975597;28;21003;-86
2021/08/07 07:48:46;;;;;;;5.10;2.47;;;23.70;92.60;;;;;;4969931;28;20468;-86
2021/08/07 07:51:13;;;;;;;5.63;2.87;;;24.60;92.20;;;;;;4956479;28;21042;-87
2021/08/07 07:53:42;;;;;;;3.53;2.37;;;26.10;90.50;;;;;;4956304;28;20461;-86
2021/08/07 07:56:08;;;;;;;3.83;2.47;;;25.90;87.80;;;;;;4956412;28;20460;-86
2021/08/07 07:58:35;;;;;;;2.53;2.00;;;26.00;86.80;;;;;;4959889;28;20476;-88
2021/08/07 08:01:02;;;;;;;3.57;2.40;;;25.70;87.50;;;;;;4965941;28;20477;-89
2021/08/07 08:03:28;;;;;;;3.00;2.23;;;25.20;90.00;;;;;;4974745;28;20479;-88
2021/08/07 08:05:55;;;;;;;2.30;2.00;;;24.90;90.60;;;;;;4975352;28;20483;-87
2021/08/07 08:08:22;;;;;;;5.67;2.33;;;25.20;90.30;;;;;;4976053;28;20476;-88
2021/08/07 08:10:50;;;;;;;3.40;2.17;;;25.80;88.80;;;;;;4984783;28;20472;-88
2021/08/07 08:13:19;;;;;;;3.87;2.20;;;26.20;85.90;;;;;;4998501;28;20455;-88
2021/08/07 08:15:46;;;;;;;5.20;2.93;;;26.50;85.30;;;;;;4999060;28;20432;-90
2021/08/07 08:18:13;;;;;;;5.53;2.20;;;26.30;83.80;;;;;;4997954;28;20455;-88
2021/08/07 08:20:40;;;;;;;2.40;1.90;;;26.20;85.50;;;;;;4967810;28;20475;-88
2021/08/07 08:23:07;;;;;;;3.50;1.97;;;25.80;86.50;;;;;;4959270;28;20461;-88
2021/08/07 08:25:34;;;;;;;4.10;3.20;;;25.50;87.10;;;;;;4955670;28;20492;-88
2021/08/07 08:28:02;;;;;;;4.70;2.40;;;25.40;88.60;;;;;;4955346;28;20453;-87
2021/08/07 08:30:29;;;;;;;2.30;1.63;;;25.00;88.20;;;;;;4973303;28;20474;-87
2021/08/07 08:32:56;;;;;;;2.17;1.60;;;25.10;88.30;;;;;;4974889;28;20836;-88
2021/08/07 08:35:23;;;;;;;2.17;1.80;;;25.20;87.40;;;;;;4974638;28;20456;-88
2021/08/07 08:37:49;;;;;;;3.40;2.30;;;25.30;87.90;;;;;;4974824;28;20443;-88
2021/08/07 08:40:16;;;;;;;3.10;1.87;;;25.40;88.90;;;;;;4958718;28;20476;-88
2021/08/07 08:42:43;;;;;;;2.93;1.83;;;25.40;87.60;;;;;;4955295;29;20460;-88
2021/08/07 08:45:12;;;;;;;5.50;2.30;;;25.40;87.60;;;;;;4954904;28;20449;-88
2021/08/07 08:47:41;;;;;;;3.63;2.00;;;25.00;88.40;;;;;;4959959;28;20872;-89
2021/08/07 08:50:09;;;;;;;3.03;1.80;;;24.60;88.10;;;;;;4974717;28;20480;-88
2021/08/07 08:52:38;;;;;;;4.40;2.20;;;24.60;89.00;;;;;;4974663;28;20478;-87
2021/08/07 08:55:05;;;;;;;2.90;2.30;;;24.50;90.10;;;;;;4975128;28;20452;-89
2021/08/07 08:57:32;;;;;;;3.30;2.30;;;24.40;90.30;;;;;;4968384;28;20449;-88
2021/08/07 08:59:59;;;;;;;2.60;1.73;;;24.30;90.40;;;;;;4954984;28;20476;-90
2021/08/07 09:02:27;;;;;;;4.10;2.00;;;24.10;90.00;;;;;;4955488;28;20456;-87
2021/08/07 09:04:54;;;;;;;3.60;1.53;;;24.00;89.50;;;;;;4955053;28;20464;-87
2021/08/07 09:07:20;;;;;;;4.20;1.83;;;24.00;90.40;;;;;;4966465;28;20494;-87
2021/08/07 09:09:53;;;;;;;4.27;1.60;;;23.90;90.70;;;;;;4974400;28;20991;-86
2021/08/07 09:12:20;;;;;;;2.27;1.80;;;23.80;90.40;;;;;;4976467;28;20477;-88
2021/08/07 09:14:48;;;;;;;2.50;1.80;;;23.80;90.00;;;;;;4986319;28;20880;-90
2021/08/07 09:17:17;;;;;;;3.53;1.97;;;23.90;90.60;;;;;;4975049;28;20456;-89
2021/08/07 09:19:51;;;;;;;2.83;1.77;;;23.80;90.40;;;;;;4970852;29;20463;-87
2021/08/07 09:22:19;;;;;;;1.80;1.47;;;23.80;90.30;;;;;;4937232;29;20449;-87
2021/08/07 09:25:01;;;;;;;3.07;2.00;;;23.60;90.10;;;;;;4935220;29;20549;-87
2021/08/07 09:27:30;;;;;;;3.77;2.03;;;23.50;90.10;;;;;;4944490;28;20493;-88
2021/08/07 09:29:57;;;;;;;3.37;1.97;;;23.70;91.10;;;;;;4973768;28;20467;-87
2021/08/07 09:32:24;;;;;;;6.93;2.30;;;23.80;90.70;;;;;;4975797;28;20456;-88
2021/08/07 09:35:07;;;;;;;2.77;1.67;;;23.80;90.40;;;;;;4985631;28;20455;-88
2021/08/07 09:37:34;;;;;;;2.47;1.53;;;24.00;90.40;;;;;;4963979;28;20449;-89
2021/08/07 09:40:01;;;;;;;4.17;2.10;;;24.20;90.30;;;;;;4954113;29;20483;-88
2021/08/07 09:42:28;;;;;;;3.00;2.47;;;24.10;90.30;;;;;;4954550;29;20456;-88
2021/08/07 09:45:04;;;;;;;4.33;2.03;;;23.80;90.30;;;;;;4955110;28;20449;-88
2021/08/07 09:47:32;;;;;;;4.63;2.20;;;23.70;91.00;;;;;;4958591;28;20486;-87
2021/08/07 09:50:01;;;;;;;3.50;2.27;;;23.70;90.40;;;;;;4971357;28;20468;-88
2021/08/07 09:52:37;;;;;;;3.37;1.60;;;23.80;90.90;;;;;;4987306;28;20447;-89
2021/08/07 09:55:05;;;;;;;3.90;2.17;;;23.90;90.90;;;;;;4954369;28;20459;-88
2021/08/07 09:57:32;;;;;;;3.00;2.03;;;23.90;90.90;;;;;;4959671;28;20452;-88
2021/08/07 09:59:59;;;;;;;3.63;2.20;;;23.50;90.60;;;;;;4972723;29;20485;-87
2021/08/07 10:02:31;;;;;;;6.03;2.17;;;23.20;91.60;;;;;;4971796;28;20447;-89
2021/08/07 10:04:58;;;;;;;3.57;2.40;;;23.20;92.50;;;;;;4971294;28;20455;-89
2021/08/07 10:07:25;;;;;;;5.83;2.87;;;23.00;92.90;;;;;;4978253;28;20493;-88
2021/08/07 10:09:53;;;;;;;3.47;2.00;;;22.90;94.10;;;;;;4978237;28;20571;-88
2021/08/07 10:12:20;;;;;;;3.43;2.33;;;22.80;94.60;;;;;;4995176;28;20453;-86
2021/08/07 10:14:47;;;;;;;3.13;2.00;;;22.40;94.70;;;;;;4988958;28;20478;-87
2021/08/07 10:17:17;;;;;;;4.40;2.43;;;22.10;95.00;;;;;;4960614;28;20438;-86
2021/08/07 10:19:46;;;;;;;5.60;2.40;;;21.80;96.70;;;;;;4957570;28;20474;-86
2021/08/07 10:22:14;;;;;;;3.73;2.10;;;21.40;99.40;;;;;;4957734;29;20456;-86
2021/08/07 10:24:44;;;;;;;4.00;2.70;;;21.10;99.90;;;;;;4967891;28;20456;-86
2021/08/07 10:27:17;;;;;;;3.50;2.87;;;20.80;99.90;;;;;;4976785;28;21054;-87
2021/08/07 10:29:46;;;;;;;5.37;3.00;;;20.70;99.90;;;;;;4976974;28;20487;-88
2021/08/07 10:32:14;;;;;;;5.37;2.57;;;20.50;99.90;;;;;;4977371;28;20816;-86
2021/08/07 10:34:45;;;;;;;7.17;2.60;;;20.30;99.90;;;;;;4967159;28;20832;-86
2021/08/07 10:37:12;;;;;;;5.20;3.13;;;20.10;99.90;;;;;;4958160;28;20452;-87
2021/08/07 10:39:39;;;;;;;5.10;2.60;;;19.90;99.90;;;;;;4957774;28;20550;-86
2021/08/07 10:42:07;;;;;;;6.67;3.40;;;19.80;99.90;;;;;;4957314;28;20976;-86
2021/08/07 10:44:37;;;;;;;8.50;4.80;;;19.60;99.90;;;;;;4969481;28;20454;-87
2021/08/07 10:47:04;;;;;;;6.00;3.23;;;19.60;99.90;;;;;;4976474;28;20493;-88
2021/08/07 10:49:36;;;;;;;4.50;2.87;;;19.60;99.90;;;;;;4964590;28;20478;-88
2021/08/07 10:52:23;;;;;;;3.97;3.47;;;19.40;99.90;;;;;;4960360;28;20436;-88
2021/08/07 10:54:50;;;;;;;6.27;3.07;;;19.20;99.90;;;;;;4956619;28;20459;-89
2021/08/07 10:57:34;;;;;;;6.33;3.20;;;19.10;99.90;;;;;;4954899;28;20444;-88
2021/08/07 11:00:21;;;;;;;5.20;3.00;;;19.10;99.90;;;;;;4957676;28;20471;-88
2021/08/07 11:02:48;;;;;;;5.50;2.70;;;19.20;99.90;;;;;;4957172;28;21046;-88
2021/08/07 11:05:15;;;;;;;5.13;3.47;;;19.20;99.90;;;;;;4959107;28;20951;-88
2021/08/07 11:07:42;;;;;;;6.93;3.00;;;19.20;99.90;;;;;;4956923;28;20488;-88
2021/08/07 11:10:11;;;;;;;4.20;3.50;;;19.20;99.90;;;;;;4957508;28;20527;-88
2021/08/07 11:12:41;;;;;;;3.87;3.30;;;19.10;99.90;;;;;;4967631;28;20440;-89
2021/08/07 11:15:12;;;;;;;5.63;3.27;;;19.10;99.90;;;;;;4962901;28;20491;-88
2021/08/07 11:17:41;;;;;;;4.93;2.80;;;19.20;99.90;;;;;;4956384;29;20451;-88
2021/08/07 11:20:12;;;;;;;4.20;2.60;;;19.10;99.90;;;;;;4956016;28;20472;-87
2021/08/07 11:23:19;;;;;;;3.97;2.57;;;19.10;99.90;;;;;;4967312;28;20457;-87
2021/08/07 11:25:59;;;;;;;3.70;2.50;;;19.10;99.90;;;;;;4975354;28;20443;-88
2021/08/07 11:28:26;;;;;;;4.10;2.97;;;19.10;99.90;;;;;;4975462;28;20445;-87
2021/08/07 11:31:13;;;;;;;5.37;2.80;;;18.90;99.90;;;;;;4974546;28;20511;-88
2021/08/07 11:33:39;;;;;;;4.70;3.60;;;18.80;99.90;;;;;;4974861;28;20472;-87
2021/08/07 11:36:15;;;;;;;4.10;3.37;;;18.80;99.90;;;;;;4975109;28;20455;-86
2021/08/07 11:39:05;;;;;;;5.17;3.43;;;18.80;99.90;;;;;;4974660;28;20459;-87
2021/08/07 11:41:39;;;;;;;5.10;3.80;;;18.90;99.90;;;;;;4964229;28;20483;-87
2021/08/07 11:44:08;;;;;;;6.10;3.67;;;19.00;99.90;;;;;;4955965;28;20489;-86
2021/08/07 11:46:43;;;;;;;7.00;3.50;;;19.00;99.90;;;;;;4955253;28;20484;-86
2021/08/07 11:49:10;;;;;;;5.23;3.50;;;19.10;99.90;;;;;;4960763;28;21037;-86
2021/08/07 11:51:38;;;;;;;5.17;3.90;;;19.20;99.90;;;;;;4975226;28;20457;-89
2021/08/07 11:54:06;;;;;;;4.67;3.80;;;19.30;99.90;;;;;;4978325;28;20453;-89
2021/08/07 11:56:37;;;;;;;4.60;3.10;;;19.40;99.90;;;;;;4976272;28;20478;-89
2021/08/07 11:59:05;;;;;;;6.00;3.97;;;19.40;99.90;;;;;;4971490;28;20489;-90
2021/08/07 12:01:34;;;;;;;4.47;3.83;;;19.50;99.90;;;;;;4956050;28;20463;-89
2021/08/07 12:04:02;;;;;;;6.20;3.83;;;19.60;99.90;;;;;;4957468;28;20451;-89
2021/08/07 12:06:31;;;;;;;4.10;3.70;;;19.70;99.90;;;;;;4971434;29;20434;-89
2021/08/07 12:08:58;;;;;;;7.70;3.80;;;19.70;99.90;;;;;;4987792;28;20459;-90
2021/08/07 12:11:25;;;;;;;4.80;3.63;;;19.80;99.90;;;;;;4993609;28;20529;-89
2021/08/07 12:13:54;;;;;;;8.20;3.20;;;19.70;99.90;;;;;;4977069;28;20935;-90
2021/08/07 12:16:22;;;;;;;5.10;2.93;;;19.80;99.90;;;;;;4977702;28;20454;-87
2021/08/07 12:18:51;;;;;;;3.50;2.73;;;20.00;99.90;;;;;;4979324;28;20934;-86
2021/08/07 12:21:34;;;;;;;3.20;2.90;;;20.10;99.90;;;;;;4957834;28;20506;-86
2021/08/07 12:24:04;;;;;;;4.40;3.60;;;20.00;99.90;;;;;;4955334;28;20445;-85
2021/08/07 12:26:32;;;;;;;6.37;3.47;;;19.90;99.90;;;;;;4963043;28;20484;-86
2021/08/07 12:29:02;;;;;;;6.23;3.33;;;19.80;99.90;;;;;;4967368;28;20463;-85
2021/08/07 12:31:43;;;;;;;4.17;3.40;;;19.70;99.90;;;;;;4974594;28;20834;-86
2021/08/07 12:34:12;;;;;;;4.07;2.97;;;19.70;99.90;;;;;;4974656;28;20464;-89
2021/08/07 12:36:40;;;;;;;4.17;3.07;;;19.60;99.90;;;;;;4974804;28;20493;-89
2021/08/07 12:39:07;;;;;;;4.37;3.33;;;19.70;99.90;;;;;;4960165;28;20460;-89
2021/08/07 12:41:36;;;;;;;6.17;3.50;;;19.70;99.90;;;;;;4955484;28;21015;-90
2021/08/07 12:44:18;;;;;;;6.40;3.03;;;19.70;99.90;;;;;;4955014;28;20945;-89
2021/08/07 12:46:47;;;;;;;5.80;4.03;;;19.80;99.90;;;;;;4955426;28;20486;-90
2021/08/07 12:49:14;;;;;;;6.80;2.50;;;19.80;99.90;;;;;;4956907;28;20464;-89
2021/08/07 12:51:42;;;;;;;4.90;3.23;;;19.90;99.90;;;;;;4956295;28;20459;-90
2021/08/07 12:54:17;;;;;;;3.53;2.93;;;20.00;99.90;;;;;;4969332;28;20470;-90
2021/08/07 12:56:48;;;;;;;3.00;2.13;;;20.00;99.90;;;;;;4956480;28;20451;-90